Aviation Digital Data Service (ADDS)

Output produced by TAFs form (1936 UTC 31 July 2014)
found at http://aviationweather.gov/adds/tafs/
 
KROW 311737Z 3118/0118 02008KT P6SM SCT020 BKN025 BKN080 
     FM312200 12010KT P6SM BKN050 BKN100 
     FM010400 15008KT P6SM VCSH BKN035 OVC080 
     FM011200 12006KT P6SM BKN035